createdAt,value
2023-05-04T00:00:49.551Z,45.45
2023-05-04T00:03:16.162Z,45.37
2023-05-04T00:05:42.679Z,45.35
2023-05-04T00:08:09.122Z,45.36
2023-05-04T00:10:35.621Z,45.52
2023-05-04T00:13:02.109Z,45.49
2023-05-04T00:15:30.258Z,45.61
2023-05-04T00:17:57.042Z,45.68
2023-05-04T00:20:23.465Z,45.58
2023-05-04T00:22:50.210Z,45.67
2023-05-04T00:25:16.652Z,45.80
2023-05-04T00:27:43.015Z,45.72
2023-05-04T00:30:09.739Z,45.57
2023-05-04T00:32:36.158Z,45.71
2023-05-04T00:35:02.696Z,45.77
2023-05-04T00:37:29.168Z,45.87
2023-05-04T00:39:55.605Z,45.91
2023-05-04T00:42:22.062Z,46.02
2023-05-04T00:44:48.462Z,46.07
2023-05-04T00:47:16.928Z,46.05
2023-05-04T00:49:49.120Z,45.86
2023-05-04T00:52:16.858Z,46.14
2023-05-04T00:54:46.495Z,45.91
2023-05-04T00:57:14.298Z,45.96
2023-05-04T00:59:41.029Z,45.99
2023-05-04T01:02:07.469Z,46.36
2023-05-04T01:04:34.079Z,46.39
2023-05-04T01:07:15.570Z,46.06
2023-05-04T01:09:49.768Z,45.97
2023-05-04T01:12:40.755Z,46.14
2023-05-04T01:15:12.072Z,46.33
2023-05-04T01:17:39.006Z,46.39
2023-05-04T01:20:06.721Z,46.71
2023-05-04T01:22:33.349Z,46.51
2023-05-04T01:24:59.810Z,46.68
2023-05-04T01:27:46.152Z,46.50
2023-05-04T01:30:19.065Z,45.71
2023-05-04T01:32:47.201Z,46.37
2023-05-04T01:35:14.080Z,46.68
2023-05-04T01:37:41.095Z,46.68
2023-05-04T01:40:08.672Z,47.17
2023-05-04T01:42:35.492Z,47.11
2023-05-04T01:45:03.164Z,47.63
2023-05-04T01:47:29.583Z,47.60
2023-05-04T01:49:56.028Z,47.41
2023-05-04T01:52:22.636Z,47.62
2023-05-04T01:54:49.066Z,47.51
2023-05-04T01:57:15.679Z,47.58
2023-05-04T01:59:42.081Z,47.82
2023-05-04T02:02:08.748Z,47.92
2023-05-04T02:04:35.685Z,48.24
2023-05-04T02:07:02.066Z,48.26
2023-05-04T02:09:29.360Z,48.16
2023-05-04T02:11:55.817Z,48.27
2023-05-04T02:14:22.161Z,48.13
2023-05-04T02:16:48.597Z,48.30
2023-05-04T02:19:15.018Z,48.31
2023-05-04T02:21:42.207Z,48.62
2023-05-04T02:24:08.623Z,48.75
2023-05-04T02:26:36.216Z,48.95
2023-05-04T02:29:06.059Z,48.63
2023-05-04T02:31:33.289Z,48.92
2023-05-04T02:34:00.576Z,48.85
2023-05-04T02:36:27.409Z,48.69
2023-05-04T02:38:55.108Z,48.96
2023-05-04T02:41:21.814Z,48.79
2023-05-04T02:43:48.247Z,49.09
2023-05-04T02:46:14.683Z,48.97
2023-05-04T02:48:41.322Z,49.18
2023-05-04T02:51:07.762Z,49.26
2023-05-04T02:53:34.117Z,49.08
2023-05-04T02:56:00.540Z,49.51
2023-05-04T02:58:27.060Z,49.11
2023-05-04T03:00:57.764Z,49.24
2023-05-04T03:03:24.255Z,49.50
2023-05-04T03:05:50.782Z,49.54
2023-05-04T03:08:17.200Z,49.35
2023-05-04T03:10:43.660Z,49.28
2023-05-04T03:13:10.218Z,49.56
2023-05-04T03:15:36.740Z,49.36
2023-05-04T03:18:03.377Z,49.57
2023-05-04T03:20:29.801Z,49.50
2023-05-04T03:22:56.226Z,49.55
2023-05-04T03:25:22.654Z,49.65
2023-05-04T03:27:49.193Z,49.43
2023-05-04T03:30:15.728Z,49.48
2023-05-04T03:32:42.209Z,49.86
2023-05-04T03:35:09.312Z,49.77
2023-05-04T03:37:35.954Z,49.70
2023-05-04T03:40:02.672Z,49.56
2023-05-04T03:42:29.254Z,49.47
2023-05-04T03:44:55.595Z,49.83
2023-05-04T03:47:22.309Z,49.65
2023-05-04T03:49:48.762Z,49.91
2023-05-04T03:52:15.176Z,49.68
2023-05-04T03:54:41.600Z,49.98
2023-05-04T03:57:08.039Z,49.89
2023-05-04T03:59:34.492Z,50.24
2023-05-04T04:02:01.290Z,49.80
2023-05-04T04:04:27.900Z,49.97
2023-05-04T04:06:54.333Z,50.35
2023-05-04T04:09:20.719Z,50.26
2023-05-04T04:11:47.272Z,50.01
2023-05-04T04:14:13.647Z,50.15
2023-05-04T04:16:40.225Z,50.20
2023-05-04T04:19:07.092Z,50.27
2023-05-04T04:21:33.576Z,50.05
2023-05-04T04:24:00.041Z,50.22
2023-05-04T04:26:26.851Z,50.23
2023-05-04T04:28:53.173Z,50.40
2023-05-04T04:31:20.193Z,50.23
2023-05-04T04:33:47.292Z,49.98
2023-05-04T04:36:16.695Z,49.93
2023-05-04T04:38:43.375Z,50.21
2023-05-04T04:41:09.993Z,49.91
2023-05-04T04:43:36.353Z,50.18
2023-05-04T04:46:04.015Z,49.63
2023-05-04T04:48:31.348Z,50.04
2023-05-04T04:50:58.379Z,49.96
2023-05-04T04:53:24.848Z,49.97
2023-05-04T04:55:52.191Z,50.02
2023-05-04T04:58:18.585Z,49.85
2023-05-04T05:00:45.359Z,50.03
2023-05-04T05:03:11.958Z,49.90
2023-05-04T05:05:38.366Z,49.55
2023-05-04T05:08:04.968Z,49.38
2023-05-04T05:10:31.434Z,49.73
2023-05-04T05:12:58.039Z,49.63
2023-05-04T05:15:24.545Z,49.65
2023-05-04T05:17:51.009Z,49.50
2023-05-04T05:20:17.465Z,49.18
2023-05-04T05:22:43.995Z,49.24
2023-05-04T05:25:11.043Z,49.06
2023-05-04T05:27:37.729Z,48.86
2023-05-04T05:30:05.716Z,49.24
2023-05-04T05:32:32.650Z,48.83
2023-05-04T05:34:59.046Z,48.78
2023-05-04T05:37:25.464Z,48.78
2023-05-04T05:39:51.865Z,48.69
2023-05-04T05:42:18.597Z,48.97
2023-05-04T05:44:44.993Z,48.85
2023-05-04T05:47:11.398Z,48.74
2023-05-04T05:49:37.844Z,48.76
2023-05-04T05:52:04.501Z,48.63
2023-05-04T05:54:32.193Z,48.80
2023-05-04T05:56:59.040Z,48.70
2023-05-04T05:59:25.535Z,48.51
2023-05-04T06:01:51.979Z,48.69
2023-05-04T06:04:18.558Z,48.62
2023-05-04T06:06:46.151Z,48.91
2023-05-04T06:09:13.147Z,48.78
2023-05-04T06:11:39.553Z,48.70
2023-05-04T06:14:06.094Z,48.94
2023-05-04T06:16:32.623Z,48.87
2023-05-04T06:18:59.244Z,49.02
2023-05-04T06:21:25.812Z,49.15
2023-05-04T06:23:52.133Z,48.73
2023-05-04T06:26:20.239Z,49.17
2023-05-04T06:28:46.587Z,48.96
2023-05-04T06:31:13.540Z,49.07
2023-05-04T06:33:40.000Z,48.82
2023-05-04T06:36:06.655Z,49.02
2023-05-04T06:38:34.681Z,48.89
2023-05-04T06:41:03.304Z,48.55
2023-05-04T06:43:29.653Z,47.99
2023-05-04T06:45:56.776Z,48.16
2023-05-04T06:48:23.323Z,47.98
2023-05-04T06:50:49.767Z,48.05
2023-05-04T06:53:16.720Z,47.66
2023-05-04T06:55:43.083Z,47.79
2023-05-04T06:58:09.567Z,47.33
2023-05-04T07:00:36.117Z,47.44
2023-05-04T07:03:02.614Z,47.09
2023-05-04T07:05:29.123Z,46.81
2023-05-04T07:07:55.706Z,46.78
2023-05-04T07:10:22.347Z,45.80
2023-05-04T07:12:48.984Z,46.16
2023-05-04T07:15:15.834Z,45.75
2023-05-04T07:17:42.361Z,45.27
2023-05-04T07:20:09.130Z,45.14
2023-05-04T07:22:35.565Z,44.79
2023-05-04T07:25:02.024Z,44.56
2023-05-04T07:27:28.573Z,45.05
2023-05-04T07:29:55.461Z,44.88
2023-05-04T07:32:22.056Z,44.72
2023-05-04T07:34:48.520Z,44.75
2023-05-04T07:37:15.964Z,44.43
2023-05-04T07:39:42.558Z,44.31
2023-05-04T07:42:11.521Z,44.28
2023-05-04T07:44:38.273Z,43.71
2023-05-04T07:47:04.668Z,43.41
2023-05-04T07:49:31.407Z,43.12
2023-05-04T07:51:57.832Z,43.16
2023-05-04T07:54:24.228Z,43.03
2023-05-04T07:56:50.595Z,43.05
2023-05-04T07:59:20.277Z,43.17
2023-05-04T08:01:50.037Z,42.83
2023-05-04T08:04:16.493Z,42.67
2023-05-04T08:06:43.020Z,42.89
2023-05-04T08:09:09.465Z,42.33
2023-05-04T08:11:35.897Z,42.32
2023-05-04T08:14:02.571Z,42.22
2023-05-04T08:16:29.385Z,42.29
2023-05-04T08:18:59.706Z,42.08
2023-05-04T08:21:26.162Z,41.69
2023-05-04T08:23:52.980Z,41.64
2023-05-04T08:26:20.100Z,41.60
2023-05-04T08:28:46.798Z,41.34
2023-05-04T08:31:13.395Z,41.43
2023-05-04T08:33:39.984Z,40.81
2023-05-04T08:36:09.055Z,40.90
2023-05-04T08:38:36.120Z,40.75
2023-05-04T08:41:06.329Z,40.59
2023-05-04T08:43:36.737Z,40.16
2023-05-04T08:46:04.785Z,40.04
2023-05-04T08:48:32.612Z,40.16
2023-05-04T08:50:59.056Z,40.14
2023-05-04T08:53:27.025Z,39.56
2023-05-04T08:55:55.890Z,39.14
2023-05-04T08:58:24.090Z,38.89
2023-05-04T09:00:51.091Z,38.61
2023-05-04T09:03:19.016Z,38.30
2023-05-04T09:05:46.263Z,38.29
2023-05-04T09:08:13.078Z,38.25
2023-05-04T09:10:39.526Z,38.02
2023-05-04T09:13:05.905Z,37.75
2023-05-04T09:15:32.679Z,37.69
2023-05-04T09:18:02.228Z,37.85
2023-05-04T09:20:29.719Z,37.54
2023-05-04T09:23:07.318Z,37.75
2023-05-04T09:25:54.774Z,37.68
2023-05-04T09:28:33.599Z,36.98
2023-05-04T09:31:01.395Z,37.35
2023-05-04T09:33:28.531Z,36.86
2023-05-04T09:35:55.606Z,36.90
2023-05-04T09:38:32.533Z,37.32
2023-05-04T09:40:58.959Z,36.71
2023-05-04T09:43:25.430Z,37.12
2023-05-04T09:45:51.893Z,37.30
2023-05-04T09:48:25.736Z,37.21
2023-05-04T09:50:57.350Z,36.83
2023-05-04T09:53:25.185Z,36.72
2023-05-04T09:56:03.937Z,36.53
2023-05-04T09:58:32.112Z,36.03
2023-05-04T10:01:01.173Z,36.08
2023-05-04T10:03:28.166Z,35.89
2023-05-04T10:05:54.736Z,36.07
2023-05-04T10:08:21.462Z,35.77
2023-05-04T10:10:48.169Z,35.97
2023-05-04T10:13:14.702Z,36.16
2023-05-04T10:16:01.325Z,36.28
2023-05-04T10:18:31.019Z,35.84
2023-05-04T10:21:30.859Z,35.80
2023-05-04T10:24:18.340Z,35.54
2023-05-04T10:27:05.561Z,35.35
2023-05-04T10:29:35.999Z,35.44
2023-05-04T10:32:02.861Z,35.18
2023-05-04T10:34:34.444Z,35.46
2023-05-04T10:37:02.824Z,35.10
2023-05-04T10:39:31.736Z,34.95
2023-05-04T10:42:06.931Z,35.05
2023-05-04T10:44:37.377Z,35.31
2023-05-04T10:47:06.622Z,34.97
2023-05-04T10:49:34.203Z,34.88
2023-05-04T10:52:07.930Z,35.08
2023-05-04T10:54:36.161Z,34.48
2023-05-04T10:57:09.142Z,34.78
2023-05-04T10:59:36.985Z,34.44
2023-05-04T11:02:05.089Z,34.50
2023-05-04T11:04:32.269Z,34.25
2023-05-04T11:07:06.664Z,34.44
2023-05-04T11:09:38.108Z,34.30
2023-05-04T11:12:04.928Z,33.57
2023-05-04T11:14:31.265Z,32.88
2023-05-04T11:17:23.897Z,33.58
2023-05-04T11:19:53.994Z,33.37
2023-05-04T11:22:20.846Z,33.01
2023-05-04T11:24:48.588Z,32.66
2023-05-04T11:27:29.603Z,33.16
2023-05-04T11:30:04.468Z,32.55
2023-05-04T11:32:39.493Z,32.32
2023-05-04T11:35:09.489Z,31.80
2023-05-04T11:37:40.616Z,31.22
2023-05-04T11:40:19.284Z,30.46
2023-05-04T11:42:46.643Z,30.03
2023-05-04T11:45:19.973Z,29.98
2023-05-04T11:47:47.322Z,29.32
2023-05-04T11:50:16.756Z,29.78
2023-05-04T11:52:44.272Z,29.70
2023-05-04T11:55:12.598Z,29.64
2023-05-04T11:57:39.821Z,29.02
2023-05-04T12:00:08.153Z,28.95
2023-05-04T12:02:35.419Z,29.16
2023-05-04T12:05:02.086Z,28.71
2023-05-04T12:07:28.540Z,29.14
2023-05-04T12:09:54.933Z,29.27
2023-05-04T12:12:21.472Z,28.66
2023-05-04T12:14:52.078Z,28.31
2023-05-04T12:17:20.281Z,28.29
2023-05-04T12:19:50.911Z,28.35
2023-05-04T12:22:17.875Z,28.15
2023-05-04T12:24:44.310Z,28.31
2023-05-04T12:27:14.600Z,28.46
2023-05-04T12:29:41.258Z,28.37
2023-05-04T12:32:08.272Z,28.18
2023-05-04T12:34:36.719Z,27.86
2023-05-04T12:37:03.087Z,27.96
2023-05-04T12:39:32.614Z,27.36
2023-05-04T12:41:59.634Z,27.90
2023-05-04T12:44:26.353Z,28.03
2023-05-04T12:46:55.043Z,27.83
2023-05-04T12:49:22.363Z,27.47
2023-05-04T12:51:51.762Z,27.46
2023-05-04T12:54:18.116Z,27.60
2023-05-04T12:56:44.600Z,27.27
2023-05-04T12:59:11.025Z,27.17
2023-05-04T13:01:37.431Z,26.94
2023-05-04T13:04:03.811Z,27.49
2023-05-04T13:06:30.256Z,27.48
2023-05-04T13:08:57.470Z,27.64
2023-05-04T13:11:24.909Z,28.01
2023-05-04T13:13:52.668Z,28.30
2023-05-04T13:16:19.061Z,28.44
2023-05-04T13:18:45.480Z,28.01
2023-05-04T13:21:12.951Z,27.35
2023-05-04T13:23:39.303Z,27.13
2023-05-04T13:26:06.549Z,27.28
2023-05-04T13:28:33.047Z,27.17
2023-05-04T13:30:59.622Z,27.60
2023-05-04T13:33:29.834Z,26.90
2023-05-04T13:35:58.527Z,26.78
2023-05-04T13:38:25.120Z,26.93
2023-05-04T13:40:51.543Z,27.04
2023-05-04T13:43:17.923Z,26.94
2023-05-04T13:45:44.261Z,27.03
2023-05-04T13:48:10.673Z,26.84
2023-05-04T13:50:37.572Z,26.78
2023-05-04T13:53:04.227Z,26.54
2023-05-04T13:55:30.774Z,26.78
2023-05-04T13:57:57.153Z,26.13
2023-05-04T14:00:23.511Z,26.00
2023-05-04T14:02:49.983Z,26.56
2023-05-04T14:05:16.395Z,26.01
2023-05-04T14:07:42.792Z,25.86
2023-05-04T14:10:09.658Z,26.69
2023-05-04T14:12:36.057Z,26.17
2023-05-04T14:15:02.525Z,25.73
2023-05-04T14:17:29.136Z,26.16
2023-05-04T14:19:56.092Z,26.12
2023-05-04T14:22:23.534Z,25.61
2023-05-04T14:24:50.712Z,25.57
2023-05-04T14:27:17.517Z,25.67
2023-05-04T14:29:44.841Z,25.84
2023-05-04T14:32:13.030Z,26.21
2023-05-04T14:34:39.441Z,25.99
2023-05-04T14:37:05.854Z,26.04
2023-05-04T14:39:32.229Z,25.49
2023-05-04T14:41:59.422Z,25.24
2023-05-04T14:44:27.811Z,24.74
2023-05-04T14:46:54.197Z,24.87
2023-05-04T14:49:35.762Z,24.73
2023-05-04T14:52:03.781Z,24.71
2023-05-04T14:54:30.316Z,25.75
2023-05-04T14:56:56.914Z,26.11
2023-05-04T14:59:23.446Z,25.94
2023-05-04T15:01:50.159Z,26.16
2023-05-04T15:04:17.507Z,25.71
2023-05-04T15:06:43.883Z,26.01
2023-05-04T15:09:10.219Z,26.01
2023-05-04T15:11:36.688Z,25.23
2023-05-04T15:14:03.378Z,25.47
2023-05-04T15:16:32.325Z,25.54
2023-05-04T15:18:59.373Z,26.00
2023-05-04T15:21:26.054Z,25.98
2023-05-04T15:23:52.412Z,25.97
2023-05-04T15:26:18.752Z,25.78
2023-05-04T15:28:45.092Z,25.70
2023-05-04T15:31:12.928Z,25.92
2023-05-04T15:33:39.453Z,26.41
2023-05-04T15:36:07.997Z,26.21
2023-05-04T15:38:35.023Z,26.49
2023-05-04T15:41:01.804Z,25.84
2023-05-04T15:43:28.303Z,26.00
2023-05-04T15:45:55.211Z,25.94
2023-05-04T15:48:22.397Z,26.19
2023-05-04T15:50:48.812Z,25.99
2023-05-04T15:53:15.289Z,25.84
2023-05-04T15:55:41.771Z,26.16
2023-05-04T15:58:08.276Z,25.84
2023-05-04T16:00:34.699Z,26.07
2023-05-04T16:03:01.344Z,25.69
2023-05-04T16:05:27.790Z,25.46
2023-05-04T16:07:54.499Z,25.13
2023-05-04T16:10:20.873Z,25.06
2023-05-04T16:12:47.309Z,25.36
2023-05-04T16:15:17.282Z,25.57
2023-05-04T16:17:43.733Z,25.11
2023-05-04T16:20:10.695Z,24.90
2023-05-04T16:22:37.277Z,24.69
2023-05-04T16:25:03.770Z,24.90
2023-05-04T16:27:30.170Z,24.67
2023-05-04T16:29:56.556Z,24.51
2023-05-04T16:32:23.363Z,24.72
2023-05-04T16:34:49.750Z,24.22
2023-05-04T16:37:17.316Z,24.31
2023-05-04T16:39:43.719Z,24.09
2023-05-04T16:42:10.163Z,24.12
2023-05-04T16:44:36.546Z,23.97
2023-05-04T16:47:02.919Z,23.81
2023-05-04T16:49:29.730Z,23.90
2023-05-04T16:51:56.263Z,24.13
2023-05-04T16:54:24.031Z,23.97
2023-05-04T16:56:50.795Z,23.94
2023-05-04T16:59:17.156Z,23.85
2023-05-04T17:01:44.058Z,23.82
2023-05-04T17:04:10.845Z,23.96
2023-05-04T17:06:37.727Z,23.84
2023-05-04T17:09:04.443Z,24.08
2023-05-04T17:11:31.631Z,24.45
2023-05-04T17:13:58.785Z,24.36
2023-05-04T17:16:25.379Z,24.16
2023-05-04T17:18:51.782Z,24.10
2023-05-04T17:21:18.108Z,24.18
2023-05-04T17:23:44.490Z,24.36
2023-05-04T17:26:10.969Z,24.20
2023-05-04T17:28:37.378Z,24.61
2023-05-04T17:31:03.739Z,24.44
2023-05-04T17:33:30.359Z,24.34
2023-05-04T17:35:57.192Z,24.20
2023-05-04T17:38:23.541Z,24.79
2023-05-04T17:40:49.907Z,25.19
2023-05-04T17:43:16.271Z,25.49
2023-05-04T17:45:42.880Z,25.88
2023-05-04T17:48:09.304Z,26.50
2023-05-04T17:50:35.715Z,26.63
2023-05-04T17:53:02.190Z,26.66
2023-05-04T17:55:31.643Z,26.95
2023-05-04T17:57:58.122Z,26.88
2023-05-04T18:00:24.823Z,27.27
2023-05-04T18:02:51.317Z,27.63
2023-05-04T18:05:17.908Z,27.67
2023-05-04T18:07:44.511Z,27.67
2023-05-04T18:10:11.207Z,27.77
2023-05-04T18:12:38.407Z,28.26
2023-05-04T18:15:08.217Z,28.26
2023-05-04T18:17:35.387Z,28.43
2023-05-04T18:20:01.857Z,28.23
2023-05-04T18:22:28.354Z,28.70
2023-05-04T18:24:54.732Z,28.60
2023-05-04T18:27:21.260Z,29.09
2023-05-04T18:29:48.587Z,29.16
2023-05-04T18:32:14.930Z,30.06
2023-05-04T18:34:41.421Z,30.02
2023-05-04T18:37:07.821Z,30.19
2023-05-04T18:39:34.254Z,30.56
2023-05-04T18:42:01.716Z,30.80
2023-05-04T18:44:28.059Z,31.04
2023-05-04T18:46:55.515Z,31.05
2023-05-04T18:49:21.937Z,31.52
2023-05-04T18:51:48.357Z,31.71
2023-05-04T18:54:16.043Z,31.61
2023-05-04T18:56:43.169Z,31.98
2023-05-04T18:59:10.767Z,31.97
2023-05-04T19:01:40.304Z,31.99
2023-05-04T19:04:06.841Z,32.27
2023-05-04T19:06:33.436Z,32.73
2023-05-04T19:08:59.911Z,32.53
2023-05-04T19:11:26.505Z,32.81
2023-05-04T19:13:53.254Z,32.80
2023-05-04T19:16:19.711Z,32.83
2023-05-04T19:18:46.143Z,33.34
2023-05-04T19:21:12.610Z,33.27
2023-05-04T19:23:38.990Z,32.83
2023-05-04T19:26:05.880Z,33.17
2023-05-04T19:28:32.366Z,33.35
2023-05-04T19:30:58.918Z,33.40
2023-05-04T19:33:36.423Z,33.45
2023-05-04T19:36:11.639Z,33.45
2023-05-04T19:38:38.108Z,33.76
2023-05-04T19:41:04.621Z,33.63
2023-05-04T19:43:31.148Z,33.88
2023-05-04T19:45:57.495Z,33.94
2023-05-04T19:48:24.301Z,33.94
2023-05-04T19:50:51.060Z,33.72
2023-05-04T19:53:17.449Z,34.08
2023-05-04T19:55:43.870Z,34.18
2023-05-04T19:58:10.888Z,33.90
2023-05-04T20:00:38.059Z,34.09
2023-05-04T20:03:05.142Z,34.18
2023-05-04T20:05:31.685Z,34.18
2023-05-04T20:07:58.146Z,34.32
2023-05-04T20:10:24.603Z,34.27
2023-05-04T20:12:51.559Z,34.42
2023-05-04T20:15:18.081Z,34.51
2023-05-04T20:17:44.527Z,34.38
2023-05-04T20:20:11.556Z,34.62
2023-05-04T20:22:38.295Z,34.79
2023-05-04T20:25:05.508Z,34.74
2023-05-04T20:27:31.888Z,34.92
2023-05-04T20:29:58.907Z,35.10
2023-05-04T20:32:25.472Z,35.13
2023-05-04T20:34:51.886Z,35.41
2023-05-04T20:37:18.299Z,35.35
2023-05-04T20:39:44.977Z,35.50
2023-05-04T20:42:11.327Z,35.67
2023-05-04T20:44:37.911Z,35.43
2023-05-04T20:47:04.672Z,35.99
2023-05-04T20:49:31.052Z,35.90
2023-05-04T20:51:57.912Z,36.18
2023-05-04T20:54:24.368Z,36.20
2023-05-04T20:56:50.720Z,36.30
2023-05-04T20:59:17.300Z,36.61
2023-05-04T21:01:43.750Z,36.43
2023-05-04T21:04:10.286Z,36.82
2023-05-04T21:06:36.983Z,36.88
2023-05-04T21:09:04.347Z,37.00
2023-05-04T21:11:30.766Z,37.35
2023-05-04T21:13:57.294Z,37.05
2023-05-04T21:16:23.776Z,37.29
2023-05-04T21:18:50.241Z,36.97
2023-05-04T21:21:16.809Z,37.75
2023-05-04T21:23:43.143Z,37.56
2023-05-04T21:26:09.544Z,37.52
2023-05-04T21:28:35.940Z,38.02
2023-05-04T21:31:06.419Z,37.63
2023-05-04T21:33:32.839Z,38.00
2023-05-04T21:35:59.272Z,38.06
2023-05-04T21:38:25.704Z,38.32
2023-05-04T21:40:52.098Z,38.41
2023-05-04T21:43:18.579Z,38.38
2023-05-04T21:45:44.942Z,38.53
2023-05-04T21:48:11.384Z,38.67
2023-05-04T21:50:37.837Z,38.81
2023-05-04T21:53:04.231Z,38.75
2023-05-04T21:55:30.668Z,38.82
2023-05-04T21:58:00.331Z,38.66
2023-05-04T22:00:26.892Z,38.80
2023-05-04T22:02:54.990Z,38.99
2023-05-04T22:05:22.406Z,39.01
2023-05-04T22:07:49.621Z,39.25
2023-05-04T22:10:16.019Z,39.39
2023-05-04T22:12:42.460Z,39.50
2023-05-04T22:15:10.208Z,39.58
2023-05-04T22:17:36.904Z,39.44
2023-05-04T22:20:03.701Z,39.61
2023-05-04T22:22:30.059Z,39.69
2023-05-04T22:24:57.120Z,39.73
2023-05-04T22:27:23.534Z,39.85
2023-05-04T22:29:49.964Z,39.74
2023-05-04T22:32:16.487Z,39.66
2023-05-04T22:34:42.922Z,40.12
2023-05-04T22:37:09.364Z,40.06
2023-05-04T22:39:35.704Z,39.99
2023-05-04T22:42:02.948Z,40.11
2023-05-04T22:44:29.569Z,40.17
2023-05-04T22:46:55.944Z,40.37
2023-05-04T22:49:22.580Z,40.46
2023-05-04T22:51:49.304Z,40.30
2023-05-04T22:54:15.757Z,40.73
2023-05-04T22:56:42.081Z,40.47
2023-05-04T22:59:08.520Z,40.60
2023-05-04T23:01:35.005Z,40.68
2023-05-04T23:04:01.497Z,40.53
2023-05-04T23:06:28.646Z,40.58
2023-05-04T23:08:55.042Z,40.71
2023-05-04T23:11:22.045Z,40.70
2023-05-04T23:13:48.534Z,40.73
2023-05-04T23:16:14.972Z,40.75
2023-05-04T23:18:41.316Z,40.95
2023-05-04T23:21:07.759Z,40.94
2023-05-04T23:23:34.998Z,40.76
2023-05-04T23:26:01.354Z,40.57
2023-05-04T23:28:27.703Z,40.56
2023-05-04T23:30:55.595Z,40.44
2023-05-04T23:33:22.101Z,40.70
2023-05-04T23:35:48.615Z,40.88
2023-05-04T23:38:14.970Z,40.79
2023-05-04T23:40:41.698Z,40.79
2023-05-04T23:43:08.213Z,40.49
2023-05-04T23:45:34.588Z,40.77
2023-05-04T23:48:01.008Z,40.52
2023-05-04T23:50:27.406Z,40.75
2023-05-04T23:52:53.752Z,40.70
2023-05-04T23:55:20.381Z,40.69
2023-05-04T23:57:46.798Z,40.58
